sensor_id;sensor_type;location;lat;lon;timestamp;temperature;humidity
34829;DHT22;21042;47.620;12.188;2024-03-02T00:00:28;6.90;99.90
34829;DHT22;21042;47.620;12.188;2024-03-02T00:02:54;6.90;99.90
34829;DHT22;21042;47.620;12.188;2024-03-02T00:05:22;6.90;99.90
34829;DHT22;21042;47.620;12.188;2024-03-02T00:07:57;6.90;99.90
34829;DHT22;21042;47.620;12.188;2024-03-02T00:10:42;6.90;99.90
34829;DHT22;21042;47.620;12.188;2024-03-02T00:13:09;6.90;99.90
34829;DHT22;21042;47.620;12.188;2024-03-02T00:15:55;6.90;99.90
34829;DHT22;21042;47.620;12.188;2024-03-02T00:18:40;7.00;99.90
34829;DHT22;21042;47.620;12.188;2024-03-02T00:21:07;7.00;99.90
34829;DHT22;21042;47.620;12.188;2024-03-02T00:23:37;7.00;99.90
34829;DHT22;21042;47.620;12.188;2024-03-02T00:26:05;7.00;99.90
34829;DHT22;21042;47.620;12.188;2024-03-02T00:33:50;7.00;99.90
34829;DHT22;21042;47.620;12.188;2024-03-02T00:36:27;6.90;99.90
34829;DHT22;21042;47.620;12.188;2024-03-02T00:38:54;6.90;99.90
34829;DHT22;21042;47.620;12.188;2024-03-02T00:41:22;6.90;99.90
34829;DHT22;21042;47.620;12.188;2024-03-02T00:46:29;6.90;99.90
34829;DHT22;21042;47.620;12.188;2024-03-02T00:48:58;6.90;99.90
34829;DHT22;21042;47.620;12.188;2024-03-02T00:51:27;6.90;99.90
34829;DHT22;21042;47.620;12.188;2024-03-02T00:53:55;6.90;99.90
34829;DHT22;21042;47.620;12.188;2024-03-02T00:56:24;7.00;99.90
34829;DHT22;21042;47.620;12.188;2024-03-02T00:58:51;6.90;99.90
34829;DHT22;21042;47.620;12.188;2024-03-02T01:01:19;7.00;99.90
34829;DHT22;21042;47.620;12.188;2024-03-02T01:03:49;7.00;99.90
34829;DHT22;21042;47.620;12.188;2024-03-02T01:06:17;7.00;99.90
34829;DHT22;21042;47.620;12.188;2024-03-02T01:08:44;7.00;99.90
34829;DHT22;21042;47.620;12.188;2024-03-02T01:11:11;6.90;99.90
34829;DHT22;21042;47.620;12.188;2024-03-02T01:13:38;7.00;99.90
34829;DHT22;21042;47.620;12.188;2024-03-02T01:16:04;6.90;99.90
34829;DHT22;21042;47.620;12.188;2024-03-02T01:18:31;6.90;99.90
34829;DHT22;21042;47.620;12.188;2024-03-02T01:20:58;6.90;99.90
34829;DHT22;21042;47.620;12.188;2024-03-02T01:23:25;6.90;99.90
34829;DHT22;21042;47.620;12.188;2024-03-02T01:25:52;6.90;99.90
34829;DHT22;21042;47.620;12.188;2024-03-02T01:28:19;7.00;99.90
34829;DHT22;21042;47.620;12.188;2024-03-02T01:30:48;6.90;99.90
34829;DHT22;21042;47.620;12.188;2024-03-02T01:33:16;6.90;99.90
34829;DHT22;21042;47.620;12.188;2024-03-02T01:35:43;6.90;99.90
34829;DHT22;21042;47.620;12.188;2024-03-02T01:38:10;6.90;99.90
34829;DHT22;21042;47.620;12.188;2024-03-02T01:40:37;6.90;99.90
34829;DHT22;21042;47.620;12.188;2024-03-02T01:43:05;6.80;99.90
34829;DHT22;21042;47.620;12.188;2024-03-02T01:45:32;6.80;99.90
34829;DHT22;21042;47.620;12.188;2024-03-02T01:47:59;6.90;99.90
34829;DHT22;21042;47.620;12.188;2024-03-02T01:50:27;6.90;99.90
34829;DHT22;21042;47.620;12.188;2024-03-02T01:52:55;6.80;99.90
34829;DHT22;21042;47.620;12.188;2024-03-02T01:55:22;6.80;99.90
34829;DHT22;21042;47.620;12.188;2024-03-02T01:57:50;6.80;99.90
34829;DHT22;21042;47.620;12.188;2024-03-02T02:00:21;6.80;99.90
34829;DHT22;21042;47.620;12.188;2024-03-02T02:02:49;6.70;99.90
34829;DHT22;21042;47.620;12.188;2024-03-02T02:05:16;6.70;99.90
34829;DHT22;21042;47.620;12.188;2024-03-02T02:07:43;6.70;99.90
34829;DHT22;21042;47.620;12.188;2024-03-02T02:10:10;6.60;99.90
34829;DHT22;21042;47.620;12.188;2024-03-02T02:12:38;6.60;99.90
34829;DHT22;21042;47.620;12.188;2024-03-02T02:15:25;6.50;99.90
34829;DHT22;21042;47.620;12.188;2024-03-02T02:17:53;6.40;99.90
34829;DHT22;21042;47.620;12.188;2024-03-02T02:20:20;6.40;99.90
34829;DHT22;21042;47.620;12.188;2024-03-02T02:23:13;6.40;99.90
34829;DHT22;21042;47.620;12.188;2024-03-02T02:25:40;6.40;99.90
34829;DHT22;21042;47.620;12.188;2024-03-02T02:28:07;6.40;99.90
34829;DHT22;21042;47.620;12.188;2024-03-02T02:30:33;6.40;99.90
34829;DHT22;21042;47.620;12.188;2024-03-02T02:33:01;6.40;99.90
34829;DHT22;21042;47.620;12.188;2024-03-02T02:35:28;6.30;99.90
34829;DHT22;21042;47.620;12.188;2024-03-02T02:37:57;6.30;99.90
34829;DHT22;21042;47.620;12.188;2024-03-02T02:40:25;6.30;99.90
34829;DHT22;21042;47.620;12.188;2024-03-02T02:42:52;6.20;99.90
34829;DHT22;21042;47.620;12.188;2024-03-02T02:45:19;6.20;99.90
34829;DHT22;21042;47.620;12.188;2024-03-02T02:47:46;6.10;99.90
34829;DHT22;21042;47.620;12.188;2024-03-02T02:50:13;6.10;99.90
34829;DHT22;21042;47.620;12.188;2024-03-02T02:52:41;6.10;99.90
34829;DHT22;21042;47.620;12.188;2024-03-02T02:55:13;6.10;99.90
34829;DHT22;21042;47.620;12.188;2024-03-02T02:57:41;6.10;99.90
34829;DHT22;21042;47.620;12.188;2024-03-02T03:00:11;6.10;99.90
34829;DHT22;21042;47.620;12.188;2024-03-02T03:02:43;6.10;99.90
34829;DHT22;21042;47.620;12.188;2024-03-02T03:09:09;6.10;99.90
34829;DHT22;21042;47.620;12.188;2024-03-02T03:11:37;6.10;99.90
34829;DHT22;21042;47.620;12.188;2024-03-02T03:14:04;6.00;99.90
34829;DHT22;21042;47.620;12.188;2024-03-02T03:16:31;6.00;99.90
34829;DHT22;21042;47.620;12.188;2024-03-02T03:18:58;6.00;99.90
34829;DHT22;21042;47.620;12.188;2024-03-02T03:21:25;6.00;99.90
34829;DHT22;21042;47.620;12.188;2024-03-02T03:23:52;5.90;99.90
34829;DHT22;21042;47.620;12.188;2024-03-02T03:26:19;5.90;99.90
34829;DHT22;21042;47.620;12.188;2024-03-02T03:28:45;6.00;99.90
34829;DHT22;21042;47.620;12.188;2024-03-02T03:31:12;6.00;99.90
34829;DHT22;21042;47.620;12.188;2024-03-02T03:33:39;6.00;99.90
34829;DHT22;21042;47.620;12.188;2024-03-02T03:36:06;6.00;99.90
34829;DHT22;21042;47.620;12.188;2024-03-02T03:38:33;6.00;99.90
34829;DHT22;21042;47.620;12.188;2024-03-02T03:41:00;6.00;99.90
34829;DHT22;21042;47.620;12.188;2024-03-02T03:43:26;6.00;99.90
34829;DHT22;21042;47.620;12.188;2024-03-02T03:45:53;6.00;99.90
34829;DHT22;21042;47.620;12.188;2024-03-02T03:48:20;6.00;99.90
34829;DHT22;21042;47.620;12.188;2024-03-02T03:50:47;5.90;99.90
34829;DHT22;21042;47.620;12.188;2024-03-02T03:53:14;5.90;99.90
34829;DHT22;21042;47.620;12.188;2024-03-02T03:55:41;5.80;99.90
34829;DHT22;21042;47.620;12.188;2024-03-02T03:58:08;5.80;99.90
34829;DHT22;21042;47.620;12.188;2024-03-02T04:00:35;5.80;99.90
34829;DHT22;21042;47.620;12.188;2024-03-02T04:03:02;5.70;99.90
34829;DHT22;21042;47.620;12.188;2024-03-02T04:05:29;5.70;99.90
34829;DHT22;21042;47.620;12.188;2024-03-02T04:07:55;5.70;99.90
34829;DHT22;21042;47.620;12.188;2024-03-02T04:10:22;5.70;99.90
34829;DHT22;21042;47.620;12.188;2024-03-02T04:12:51;5.70;99.90
34829;DHT22;21042;47.620;12.188;2024-03-02T04:15:17;5.60;99.90
34829;DHT22;21042;47.620;12.188;2024-03-02T04:17:45;5.70;99.90
34829;DHT22;21042;47.620;12.188;2024-03-02T04:20:12;5.60;99.90
34829;DHT22;21042;47.620;12.188;2024-03-02T04:22:39;5.60;99.90
34829;DHT22;21042;47.620;12.188;2024-03-02T04:25:06;5.60;99.90
34829;DHT22;21042;47.620;12.188;2024-03-02T04:27:34;5.60;99.90
34829;DHT22;21042;47.620;12.188;2024-03-02T04:30:01;5.60;99.90
34829;DHT22;21042;47.620;12.188;2024-03-02T04:32:27;5.60;99.90
34829;DHT22;21042;47.620;12.188;2024-03-02T04:34:54;5.60;99.90
34829;DHT22;21042;47.620;12.188;2024-03-02T04:37:21;5.60;99.90
34829;DHT22;21042;47.620;12.188;2024-03-02T04:39:48;5.60;99.90
34829;DHT22;21042;47.620;12.188;2024-03-02T04:42:15;5.60;99.90
34829;DHT22;21042;47.620;12.188;2024-03-02T04:44:42;5.70;99.90
34829;DHT22;21042;47.620;12.188;2024-03-02T04:47:08;5.70;99.90
34829;DHT22;21042;47.620;12.188;2024-03-02T04:49:35;5.70;99.90
34829;DHT22;21042;47.620;12.188;2024-03-02T04:52:02;5.70;99.90
34829;DHT22;21042;47.620;12.188;2024-03-02T04:54:29;5.70;99.90
34829;DHT22;21042;47.620;12.188;2024-03-02T04:56:56;5.70;99.90
34829;DHT22;21042;47.620;12.188;2024-03-02T04:59:23;5.70;99.90
34829;DHT22;21042;47.620;12.188;2024-03-02T05:01:50;5.70;99.90
34829;DHT22;21042;47.620;12.188;2024-03-02T05:04:17;5.70;99.90
34829;DHT22;21042;47.620;12.188;2024-03-02T05:06:44;5.70;99.90
34829;DHT22;21042;47.620;12.188;2024-03-02T05:09:17;5.60;99.90
34829;DHT22;21042;47.620;12.188;2024-03-02T05:11:44;5.60;99.90
34829;DHT22;21042;47.620;12.188;2024-03-02T05:14:11;5.50;99.90
34829;DHT22;21042;47.620;12.188;2024-03-02T05:16:38;5.50;99.90
34829;DHT22;21042;47.620;12.188;2024-03-02T05:19:08;5.50;99.90
34829;DHT22;21042;47.620;12.188;2024-03-02T05:21:35;5.50;99.90
34829;DHT22;21042;47.620;12.188;2024-03-02T05:24:02;5.50;99.90
34829;DHT22;21042;47.620;12.188;2024-03-02T05:26:28;5.50;99.90
34829;DHT22;21042;47.620;12.188;2024-03-02T05:28:55;5.50;99.90
34829;DHT22;21042;47.620;12.188;2024-03-02T05:31:22;5.40;99.90
34829;DHT22;21042;47.620;12.188;2024-03-02T05:33:49;5.40;99.90
34829;DHT22;21042;47.620;12.188;2024-03-02T05:36:20;5.40;99.90
34829;DHT22;21042;47.620;12.188;2024-03-02T05:38:47;5.40;99.90
34829;DHT22;21042;47.620;12.188;2024-03-02T05:41:14;5.40;99.90
34829;DHT22;21042;47.620;12.188;2024-03-02T05:43:40;5.50;99.90
34829;DHT22;21042;47.620;12.188;2024-03-02T05:46:07;5.50;99.90
34829;DHT22;21042;47.620;12.188;2024-03-02T05:48:34;5.50;99.90
34829;DHT22;21042;47.620;12.188;2024-03-02T05:51:01;5.50;99.90
34829;DHT22;21042;47.620;12.188;2024-03-02T05:53:28;5.50;99.90
34829;DHT22;21042;47.620;12.188;2024-03-02T05:55:55;5.40;99.90
34829;DHT22;21042;47.620;12.188;2024-03-02T05:58:22;5.40;99.90
34829;DHT22;21042;47.620;12.188;2024-03-02T06:01:03;5.30;99.90
34829;DHT22;21042;47.620;12.188;2024-03-02T06:03:32;5.30;99.90
34829;DHT22;21042;47.620;12.188;2024-03-02T06:05:59;5.40;99.90
34829;DHT22;21042;47.620;12.188;2024-03-02T06:08:26;5.40;99.90
34829;DHT22;21042;47.620;12.188;2024-03-02T06:10:52;5.50;99.90
34829;DHT22;21042;47.620;12.188;2024-03-02T06:13:19;5.50;99.90
34829;DHT22;21042;47.620;12.188;2024-03-02T06:15:46;5.50;99.90
34829;DHT22;21042;47.620;12.188;2024-03-02T06:18:13;5.50;99.90
34829;DHT22;21042;47.620;12.188;2024-03-02T06:20:40;5.40;99.90
34829;DHT22;21042;47.620;12.188;2024-03-02T06:23:06;5.40;99.90
34829;DHT22;21042;47.620;12.188;2024-03-02T06:25:33;5.40;99.90
34829;DHT22;21042;47.620;12.188;2024-03-02T06:28:00;5.30;99.90
34829;DHT22;21042;47.620;12.188;2024-03-02T06:30:27;5.30;99.90
34829;DHT22;21042;47.620;12.188;2024-03-02T06:32:54;5.30;99.90
34829;DHT22;21042;47.620;12.188;2024-03-02T06:35:20;5.40;99.90
34829;DHT22;21042;47.620;12.188;2024-03-02T06:37:47;5.30;99.90
34829;DHT22;21042;47.620;12.188;2024-03-02T06:40:14;5.30;99.90
34829;DHT22;21042;47.620;12.188;2024-03-02T06:42:41;5.40;99.90
34829;DHT22;21042;47.620;12.188;2024-03-02T06:45:08;5.40;99.90
34829;DHT22;21042;47.620;12.188;2024-03-02T06:47:34;5.40;99.90
34829;DHT22;21042;47.620;12.188;2024-03-02T06:50:01;5.40;99.90
34829;DHT22;21042;47.620;12.188;2024-03-02T06:52:28;5.50;99.90
34829;DHT22;21042;47.620;12.188;2024-03-02T06:54:55;5.50;99.90
34829;DHT22;21042;47.620;12.188;2024-03-02T06:57:22;5.60;99.90
34829;DHT22;21042;47.620;12.188;2024-03-02T06:59:48;5.70;99.90
34829;DHT22;21042;47.620;12.188;2024-03-02T07:02:17;5.80;99.90
34829;DHT22;21042;47.620;12.188;2024-03-02T07:04:44;5.80;99.90
34829;DHT22;21042;47.620;12.188;2024-03-02T07:07:12;5.90;99.90
34829;DHT22;21042;47.620;12.188;2024-03-02T07:09:39;6.10;99.90
34829;DHT22;21042;47.620;12.188;2024-03-02T07:12:06;6.20;99.90
34829;DHT22;21042;47.620;12.188;2024-03-02T07:14:33;6.30;99.90
34829;DHT22;21042;47.620;12.188;2024-03-02T07:17:18;6.40;99.90
34829;DHT22;21042;47.620;12.188;2024-03-02T07:19:45;6.50;99.90
34829;DHT22;21042;47.620;12.188;2024-03-02T07:22:12;6.60;99.90
34829;DHT22;21042;47.620;12.188;2024-03-02T07:24:43;6.80;99.90
34829;DHT22;21042;47.620;12.188;2024-03-02T07:27:10;6.90;99.90
34829;DHT22;21042;47.620;12.188;2024-03-02T07:29:37;7.00;99.90
34829;DHT22;21042;47.620;12.188;2024-03-02T07:32:05;7.10;99.90
34829;DHT22;21042;47.620;12.188;2024-03-02T07:34:32;7.20;99.90
34829;DHT22;21042;47.620;12.188;2024-03-02T07:36:59;7.30;99.90
34829;DHT22;21042;47.620;12.188;2024-03-02T07:39:26;7.30;99.90
34829;DHT22;21042;47.620;12.188;2024-03-02T07:41:53;7.40;99.90
34829;DHT22;21042;47.620;12.188;2024-03-02T07:44:19;7.60;99.90
34829;DHT22;21042;47.620;12.188;2024-03-02T07:46:47;7.60;99.90
34829;DHT22;21042;47.620;12.188;2024-03-02T07:49:16;7.70;99.90
34829;DHT22;21042;47.620;12.188;2024-03-02T07:51:43;7.80;99.90
34829;DHT22;21042;47.620;12.188;2024-03-02T07:54:10;7.80;99.90
34829;DHT22;21042;47.620;12.188;2024-03-02T07:56:37;7.90;99.90
34829;DHT22;21042;47.620;12.188;2024-03-02T07:59:04;7.80;99.90
34829;DHT22;21042;47.620;12.188;2024-03-02T08:01:32;7.80;99.90
34829;DHT22;21042;47.620;12.188;2024-03-02T08:04:00;7.90;99.90
34829;DHT22;21042;47.620;12.188;2024-03-02T08:06:28;7.90;99.90
34829;DHT22;21042;47.620;12.188;2024-03-02T08:08:56;8.00;99.90
34829;DHT22;21042;47.620;12.188;2024-03-02T08:11:23;8.20;99.90
34829;DHT22;21042;47.620;12.188;2024-03-02T08:13:50;8.40;99.90
34829;DHT22;21042;47.620;12.188;2024-03-02T08:16:19;8.50;99.90
34829;DHT22;21042;47.620;12.188;2024-03-02T08:18:52;8.60;99.90
34829;DHT22;21042;47.620;12.188;2024-03-02T08:21:19;8.80;99.90
34829;DHT22;21042;47.620;12.188;2024-03-02T08:23:47;8.80;99.90
34829;DHT22;21042;47.620;12.188;2024-03-02T08:26:13;8.90;99.90
34829;DHT22;21042;47.620;12.188;2024-03-02T08:28:40;9.00;99.90
34829;DHT22;21042;47.620;12.188;2024-03-02T08:31:07;9.00;99.90
34829;DHT22;21042;47.620;12.188;2024-03-02T08:33:34;9.10;99.90
34829;DHT22;21042;47.620;12.188;2024-03-02T08:36:04;9.10;99.90
34829;DHT22;21042;47.620;12.188;2024-03-02T08:38:31;9.10;99.90
34829;DHT22;21042;47.620;12.188;2024-03-02T08:40:58;9.20;99.90
34829;DHT22;21042;47.620;12.188;2024-03-02T08:43:25;9.30;99.90
34829;DHT22;21042;47.620;12.188;2024-03-02T08:45:52;9.30;99.90
34829;DHT22;21042;47.620;12.188;2024-03-02T08:48:19;9.30;99.90
34829;DHT22;21042;47.620;12.188;2024-03-02T08:50:47;9.30;99.90
34829;DHT22;21042;47.620;12.188;2024-03-02T08:53:14;9.40;99.90
34829;DHT22;21042;47.620;12.188;2024-03-02T08:55:46;9.40;99.90
34829;DHT22;21042;47.620;12.188;2024-03-02T08:58:13;9.40;99.90
34829;DHT22;21042;47.620;12.188;2024-03-02T09:00:40;9.50;99.90
34829;DHT22;21042;47.620;12.188;2024-03-02T09:03:07;9.70;99.90
34829;DHT22;21042;47.620;12.188;2024-03-02T09:05:35;9.60;99.90
34829;DHT22;21042;47.620;12.188;2024-03-02T09:08:01;9.80;99.90
34829;DHT22;21042;47.620;12.188;2024-03-02T09:10:30;9.90;99.90
34829;DHT22;21042;47.620;12.188;2024-03-02T09:12:57;10.20;99.90
34829;DHT22;21042;47.620;12.188;2024-03-02T09:15:24;10.40;99.90
34829;DHT22;21042;47.620;12.188;2024-03-02T09:17:51;10.50;99.90
34829;DHT22;21042;47.620;12.188;2024-03-02T09:20:18;10.40;99.90
34829;DHT22;21042;47.620;12.188;2024-03-02T09:22:45;10.40;99.90
34829;DHT22;21042;47.620;12.188;2024-03-02T09:25:14;10.70;99.90
34829;DHT22;21042;47.620;12.188;2024-03-02T09:27:41;11.00;99.90
34829;DHT22;21042;47.620;12.188;2024-03-02T09:30:08;11.30;99.90
34829;DHT22;21042;47.620;12.188;2024-03-02T09:32:36;11.30;99.90
34829;DHT22;21042;47.620;12.188;2024-03-02T09:35:04;11.30;99.90
34829;DHT22;21042;47.620;12.188;2024-03-02T09:37:31;11.40;99.90
34829;DHT22;21042;47.620;12.188;2024-03-02T09:39:57;11.50;99.90
34829;DHT22;21042;47.620;12.188;2024-03-02T09:42:24;11.70;99.90
34829;DHT22;21042;47.620;12.188;2024-03-02T09:44:53;11.80;99.90
34829;DHT22;21042;47.620;12.188;2024-03-02T09:47:20;11.90;99.90
34829;DHT22;21042;47.620;12.188;2024-03-02T09:49:47;12.20;99.90
34829;DHT22;21042;47.620;12.188;2024-03-02T09:52:15;12.30;99.90
34829;DHT22;21042;47.620;12.188;2024-03-02T09:54:42;12.30;99.90
34829;DHT22;21042;47.620;12.188;2024-03-02T09:57:09;12.30;99.90
34829;DHT22;21042;47.620;12.188;2024-03-02T09:59:36;12.20;99.90
34829;DHT22;21042;47.620;12.188;2024-03-02T10:02:03;12.10;99.90
34829;DHT22;21042;47.620;12.188;2024-03-02T10:04:30;12.20;99.90
34829;DHT22;21042;47.620;12.188;2024-03-02T10:07:16;12.20;99.90
34829;DHT22;21042;47.620;12.188;2024-03-02T10:09:45;12.30;99.90
34829;DHT22;21042;47.620;12.188;2024-03-02T10:12:14;12.20;99.90
34829;DHT22;21042;47.620;12.188;2024-03-02T10:14:42;12.20;99.90
34829;DHT22;21042;47.620;12.188;2024-03-02T10:17:13;12.30;99.90
34829;DHT22;21042;47.620;12.188;2024-03-02T10:19:40;12.50;99.90
34829;DHT22;21042;47.620;12.188;2024-03-02T10:22:08;12.50;99.90
34829;DHT22;21042;47.620;12.188;2024-03-02T10:24:39;12.70;99.90
34829;DHT22;21042;47.620;12.188;2024-03-02T10:27:14;12.80;99.90
34829;DHT22;21042;47.620;12.188;2024-03-02T10:29:42;12.90;99.90
34829;DHT22;21042;47.620;12.188;2024-03-02T10:32:09;13.00;99.90
34829;DHT22;21042;47.620;12.188;2024-03-02T10:34:39;13.20;99.90
34829;DHT22;21042;47.620;12.188;2024-03-02T10:37:07;13.30;99.90
34829;DHT22;21042;47.620;12.188;2024-03-02T10:39:35;13.30;99.90
34829;DHT22;21042;47.620;12.188;2024-03-02T10:42:08;13.20;99.90
34829;DHT22;21042;47.620;12.188;2024-03-02T10:44:35;13.10;99.90
34829;DHT22;21042;47.620;12.188;2024-03-02T10:47:04;13.00;99.90
34829;DHT22;21042;47.620;12.188;2024-03-02T10:49:32;12.90;99.90
34829;DHT22;21042;47.620;12.188;2024-03-02T10:52:00;12.90;99.90
34829;DHT22;21042;47.620;12.188;2024-03-02T10:54:27;12.80;99.90
34829;DHT22;21042;47.620;12.188;2024-03-02T10:56:58;12.80;99.90
34829;DHT22;21042;47.620;12.188;2024-03-02T10:59:27;12.80;99.90
34829;DHT22;21042;47.620;12.188;2024-03-02T11:01:58;12.90;99.90
34829;DHT22;21042;47.620;12.188;2024-03-02T11:04:31;12.90;99.90
34829;DHT22;21042;47.620;12.188;2024-03-02T11:07:07;12.80;99.90
34829;DHT22;21042;47.620;12.188;2024-03-02T11:09:35;12.90;99.90
34829;DHT22;21042;47.620;12.188;2024-03-02T11:12:13;12.90;99.90
34829;DHT22;21042;47.620;12.188;2024-03-02T11:14:42;13.00;99.90
34829;DHT22;21042;47.620;12.188;2024-03-02T11:17:14;13.00;99.90
34829;DHT22;21042;47.620;12.188;2024-03-02T11:19:44;13.00;99.90
34829;DHT22;21042;47.620;12.188;2024-03-02T11:22:13;13.00;99.90
34829;DHT22;21042;47.620;12.188;2024-03-02T11:24:48;13.10;99.90
34829;DHT22;21042;47.620;12.188;2024-03-02T11:33:03;13.40;99.90
34829;DHT22;21042;47.620;12.188;2024-03-02T11:35:43;13.40;99.90
34829;DHT22;21042;47.620;12.188;2024-03-02T11:38:12;13.50;99.90
34829;DHT22;21042;47.620;12.188;2024-03-02T11:40:39;13.50;99.90
34829;DHT22;21042;47.620;12.188;2024-03-02T11:43:07;13.60;99.90
34829;DHT22;21042;47.620;12.188;2024-03-02T11:45:37;13.50;99.90
34829;DHT22;21042;47.620;12.188;2024-03-02T11:48:14;13.50;99.90
34829;DHT22;21042;47.620;12.188;2024-03-02T11:50:46;13.50;99.90
34829;DHT22;21042;47.620;12.188;2024-03-02T11:53:13;13.60;99.90
34829;DHT22;21042;47.620;12.188;2024-03-02T11:55:40;13.70;99.90
34829;DHT22;21042;47.620;12.188;2024-03-02T11:58:07;13.80;99.90
34829;DHT22;21042;47.620;12.188;2024-03-02T12:00:34;13.90;99.90
34829;DHT22;21042;47.620;12.188;2024-03-02T12:03:05;13.90;99.90
34829;DHT22;21042;47.620;12.188;2024-03-02T12:05:33;14.10;99.90
34829;DHT22;21042;47.620;12.188;2024-03-02T12:08:05;14.20;99.90
34829;DHT22;21042;47.620;12.188;2024-03-02T12:10:34;14.20;99.90
34829;DHT22;21042;47.620;12.188;2024-03-02T12:13:05;14.20;99.90
34829;DHT22;21042;47.620;12.188;2024-03-02T12:15:35;14.10;99.90
34829;DHT22;21042;47.620;12.188;2024-03-02T12:18:04;14.20;99.90
34829;DHT22;21042;47.620;12.188;2024-03-02T12:20:32;14.30;99.90
34829;DHT22;21042;47.620;12.188;2024-03-02T12:23:01;14.30;99.90
34829;DHT22;21042;47.620;12.188;2024-03-02T12:25:30;14.40;99.90
34829;DHT22;21042;47.620;12.188;2024-03-02T12:27:59;14.50;99.90
34829;DHT22;21042;47.620;12.188;2024-03-02T12:30:30;14.60;99.90
34829;DHT22;21042;47.620;12.188;2024-03-02T12:32:58;14.60;99.90
34829;DHT22;21042;47.620;12.188;2024-03-02T12:35:26;14.60;99.90
34829;DHT22;21042;47.620;12.188;2024-03-02T12:37:53;14.70;99.90
34829;DHT22;21042;47.620;12.188;2024-03-02T12:40:21;14.80;99.90
34829;DHT22;21042;47.620;12.188;2024-03-02T12:42:50;14.80;99.90
34829;DHT22;21042;47.620;12.188;2024-03-02T12:45:17;14.70;99.90
34829;DHT22;21042;47.620;12.188;2024-03-02T12:47:51;14.60;99.90
34829;DHT22;21042;47.620;12.188;2024-03-02T12:50:19;14.60;99.90
34829;DHT22;21042;47.620;12.188;2024-03-02T12:52:53;14.50;99.90
34829;DHT22;21042;47.620;12.188;2024-03-02T12:55:21;14.50;99.90
34829;DHT22;21042;47.620;12.188;2024-03-02T12:57:52;14.40;99.90
34829;DHT22;21042;47.620;12.188;2024-03-02T13:00:20;14.40;99.90
34829;DHT22;21042;47.620;12.188;2024-03-02T13:02:48;14.40;99.90
34829;DHT22;21042;47.620;12.188;2024-03-02T13:05:17;14.40;99.90
34829;DHT22;21042;47.620;12.188;2024-03-02T13:07:47;14.40;99.90
34829;DHT22;21042;47.620;12.188;2024-03-02T13:10:14;14.40;99.90
34829;DHT22;21042;47.620;12.188;2024-03-02T13:12:41;14.40;99.90
34829;DHT22;21042;47.620;12.188;2024-03-02T13:15:08;14.40;99.90
34829;DHT22;21042;47.620;12.188;2024-03-02T13:17:39;14.40;99.90
34829;DHT22;21042;47.620;12.188;2024-03-02T13:20:06;14.40;99.90
34829;DHT22;21042;47.620;12.188;2024-03-02T13:22:37;14.40;99.90
34829;DHT22;21042;47.620;12.188;2024-03-02T13:25:04;14.40;99.90
34829;DHT22;21042;47.620;12.188;2024-03-02T13:27:32;14.40;99.90
34829;DHT22;21042;47.620;12.188;2024-03-02T13:30:00;14.40;99.90
34829;DHT22;21042;47.620;12.188;2024-03-02T13:32:28;14.40;99.90
34829;DHT22;21042;47.620;12.188;2024-03-02T13:34:54;14.40;99.90
34829;DHT22;21042;47.620;12.188;2024-03-02T13:37:21;14.40;99.90
34829;DHT22;21042;47.620;12.188;2024-03-02T13:39:48;14.40;99.90
34829;DHT22;21042;47.620;12.188;2024-03-02T13:42:15;14.40;99.90
34829;DHT22;21042;47.620;12.188;2024-03-02T13:44:43;14.40;99.90
34829;DHT22;21042;47.620;12.188;2024-03-02T13:47:12;14.50;99.90
34829;DHT22;21042;47.620;12.188;2024-03-02T13:49:39;14.50;99.90
34829;DHT22;21042;47.620;12.188;2024-03-02T13:52:10;14.40;99.90
34829;DHT22;21042;47.620;12.188;2024-03-02T13:54:41;14.40;99.90
34829;DHT22;21042;47.620;12.188;2024-03-02T13:57:10;14.30;99.90
34829;DHT22;21042;47.620;12.188;2024-03-02T13:59:38;14.40;99.90
34829;DHT22;21042;47.620;12.188;2024-03-02T14:02:05;14.40;99.90
34829;DHT22;21042;47.620;12.188;2024-03-02T14:04:36;14.50;99.90
34829;DHT22;21042;47.620;12.188;2024-03-02T14:07:04;14.50;99.90
34829;DHT22;21042;47.620;12.188;2024-03-02T14:09:34;14.40;99.90
34829;DHT22;21042;47.620;12.188;2024-03-02T14:12:02;14.40;99.90
34829;DHT22;21042;47.620;12.188;2024-03-02T14:14:29;14.50;99.90
34829;DHT22;21042;47.620;12.188;2024-03-02T14:16:56;14.50;99.90
34829;DHT22;21042;47.620;12.188;2024-03-02T14:19:26;14.50;99.90
34829;DHT22;21042;47.620;12.188;2024-03-02T14:21:54;14.40;99.90
34829;DHT22;21042;47.620;12.188;2024-03-02T14:24:20;14.50;99.90
34829;DHT22;21042;47.620;12.188;2024-03-02T14:26:51;14.50;99.90
34829;DHT22;21042;47.620;12.188;2024-03-02T14:29:19;14.60;99.90
34829;DHT22;21042;47.620;12.188;2024-03-02T14:31:46;14.60;99.90
34829;DHT22;21042;47.620;12.188;2024-03-02T14:34:15;14.50;99.90
34829;DHT22;21042;47.620;12.188;2024-03-02T14:36:42;14.60;99.90
34829;DHT22;21042;47.620;12.188;2024-03-02T14:39:12;14.50;99.90
34829;DHT22;21042;47.620;12.188;2024-03-02T14:41:39;14.50;99.90
34829;DHT22;21042;47.620;12.188;2024-03-02T14:44:06;14.40;99.90
34829;DHT22;21042;47.620;12.188;2024-03-02T14:46:33;14.40;99.90
34829;DHT22;21042;47.620;12.188;2024-03-02T14:49:00;14.30;99.90
34829;DHT22;21042;47.620;12.188;2024-03-02T14:51:27;14.40;99.90
34829;DHT22;21042;47.620;12.188;2024-03-02T14:53:54;14.40;99.90
34829;DHT22;21042;47.620;12.188;2024-03-02T14:56:20;14.40;99.90
34829;DHT22;21042;47.620;12.188;2024-03-02T14:58:47;14.40;99.90
34829;DHT22;21042;47.620;12.188;2024-03-02T15:01:14;14.40;99.90
34829;DHT22;21042;47.620;12.188;2024-03-02T15:03:42;14.30;99.90
34829;DHT22;21042;47.620;12.188;2024-03-02T15:06:09;14.20;99.90
34829;DHT22;21042;47.620;12.188;2024-03-02T15:08:36;14.20;99.90
34829;DHT22;21042;47.620;12.188;2024-03-02T15:11:03;14.10;99.90
34829;DHT22;21042;47.620;12.188;2024-03-02T15:13:30;14.10;99.90
34829;DHT22;21042;47.620;12.188;2024-03-02T15:15:57;14.10;99.90
34829;DHT22;21042;47.620;12.188;2024-03-02T15:18:25;14.10;99.90
34829;DHT22;21042;47.620;12.188;2024-03-02T15:20:52;14.10;99.90
34829;DHT22;21042;47.620;12.188;2024-03-02T15:23:19;14.20;99.90
34829;DHT22;21042;47.620;12.188;2024-03-02T15:25:45;14.10;99.90
34829;DHT22;21042;47.620;12.188;2024-03-02T15:28:13;14.00;99.90
34829;DHT22;21042;47.620;12.188;2024-03-02T15:30:39;13.90;99.90
34829;DHT22;21042;47.620;12.188;2024-03-02T15:33:06;13.90;99.90
34829;DHT22;21042;47.620;12.188;2024-03-02T15:35:33;13.80;99.90
34829;DHT22;21042;47.620;12.188;2024-03-02T15:38:00;13.60;99.90
34829;DHT22;21042;47.620;12.188;2024-03-02T15:40:27;13.50;99.90
34829;DHT22;21042;47.620;12.188;2024-03-02T15:42:54;13.40;99.90
34829;DHT22;21042;47.620;12.188;2024-03-02T15:45:21;13.30;99.90
34829;DHT22;21042;47.620;12.188;2024-03-02T15:47:48;13.30;99.90